Camargo, Illinois
Current Conditions -  °F | °C
As of 4:53 PM on Thursday 27 Nov 2014 (Local Time) from KCMI Reporting Station
Overcast Overcast  
Wind Chill: 12°   Ceiling: 2600
Heat Index: 23°   Visibility: 7mi
Dew Point: 19°   Wind: 12mph
Humidity: 85%   Direction: 270°W
Pressure: 30.42"   Gusts: NA
Location:  39.8°N, 88.16°W
Report Text: KCMI 272253Z 27010KT 7SM SCT017 OVC026 M05/M07 A3042 RMK AO2 SNB16E39 SLP313 P0000 T10501072 $
Loading
Personal Weather Stations






























Interactive Weather Map New forecast layout! Learn more

10-Day Weather Forecast

Advertisements
Track Severe Weather on mobile